sensor_id;sensor_type;location;lat;lon;timestamp;P1;durP1;ratioP1;P2;durP2;ratioP2
40675;SDS011;26359;48.750;9.314;2023-12-20T00:00:16;7.20;;;6.78;;
40675;SDS011;26359;48.750;9.314;2023-12-20T00:02:42;7.68;;;7.05;;
40675;SDS011;26359;48.750;9.314;2023-12-20T00:05:11;8.80;;;8.23;;
40675;SDS011;26359;48.750;9.314;2023-12-20T00:07:40;8.27;;;7.78;;
40675;SDS011;26359;48.750;9.314;2023-12-20T00:10:05;6.72;;;6.25;;
40675;SDS011;26359;48.750;9.314;2023-12-20T00:12:32;15.00;;;14.10;;
40675;SDS011;26359;48.750;9.314;2023-12-20T00:14:57;35.90;;;34.03;;
40675;SDS011;26359;48.750;9.314;2023-12-20T00:17:23;59.35;;;56.30;;
40675;SDS011;26359;48.750;9.314;2023-12-20T00:19:48;43.53;;;41.28;;
40675;SDS011;26359;48.750;9.314;2023-12-20T00:22:14;31.55;;;29.88;;
40675;SDS011;26359;48.750;9.314;2023-12-20T00:24:39;31.17;;;29.48;;
40675;SDS011;26359;48.750;9.314;2023-12-20T00:27:05;48.67;;;46.17;;
40675;SDS011;26359;48.750;9.314;2023-12-20T00:29:30;25.70;;;24.30;;
40675;SDS011;26359;48.750;9.314;2023-12-20T00:31:56;14.60;;;13.77;;
40675;SDS011;26359;48.750;9.314;2023-12-20T00:34:21;28.63;;;27.13;;
40675;SDS011;26359;48.750;9.314;2023-12-20T00:36:47;11.20;;;10.60;;
40675;SDS011;26359;48.750;9.314;2023-12-20T00:39:12;19.10;;;17.95;;
40675;SDS011;26359;48.750;9.314;2023-12-20T00:41:38;46.97;;;44.45;;
40675;SDS011;26359;48.750;9.314;2023-12-20T00:44:03;17.45;;;16.50;;
40675;SDS011;26359;48.750;9.314;2023-12-20T00:46:29;18.52;;;17.50;;
40675;SDS011;26359;48.750;9.314;2023-12-20T00:48:55;31.08;;;29.42;;
40675;SDS011;26359;48.750;9.314;2023-12-20T00:51:20;27.45;;;26.05;;
40675;SDS011;26359;48.750;9.314;2023-12-20T00:53:47;19.42;;;18.40;;
40675;SDS011;26359;48.750;9.314;2023-12-20T00:56:14;47.08;;;44.65;;
40675;SDS011;26359;48.750;9.314;2023-12-20T00:58:39;14.52;;;13.70;;
40675;SDS011;26359;48.750;9.314;2023-12-20T01:01:05;27.17;;;25.45;;
40675;SDS011;26359;48.750;9.314;2023-12-20T01:03:30;13.35;;;12.65;;
40675;SDS011;26359;48.750;9.314;2023-12-20T01:05:56;30.83;;;29.23;;
40675;SDS011;26359;48.750;9.314;2023-12-20T01:08:21;23.45;;;22.17;;
40675;SDS011;26359;48.750;9.314;2023-12-20T01:10:47;23.67;;;22.48;;
40675;SDS011;26359;48.750;9.314;2023-12-20T01:13:13;21.98;;;20.77;;
40675;SDS011;26359;48.750;9.314;2023-12-20T01:15:39;30.00;;;28.48;;
40675;SDS011;26359;48.750;9.314;2023-12-20T01:18:04;53.45;;;50.80;;
40675;SDS011;26359;48.750;9.314;2023-12-20T01:20:30;8.73;;;8.23;;
40675;SDS011;26359;48.750;9.314;2023-12-20T01:22:55;38.47;;;36.35;;
40675;SDS011;26359;48.750;9.314;2023-12-20T01:25:21;33.90;;;32.13;;
40675;SDS011;26359;48.750;9.314;2023-12-20T01:27:46;33.47;;;31.80;;
40675;SDS011;26359;48.750;9.314;2023-12-20T01:30:12;29.73;;;28.02;;
40675;SDS011;26359;48.750;9.314;2023-12-20T01:32:37;6.68;;;6.38;;
40675;SDS011;26359;48.750;9.314;2023-12-20T01:35:03;10.10;;;9.60;;
40675;SDS011;26359;48.750;9.314;2023-12-20T01:37:29;13.90;;;13.18;;
40675;SDS011;26359;48.750;9.314;2023-12-20T01:39:54;8.88;;;8.20;;
40675;SDS011;26359;48.750;9.314;2023-12-20T01:42:20;12.40;;;11.80;;
40675;SDS011;26359;48.750;9.314;2023-12-20T01:44:46;9.85;;;9.35;;
40675;SDS011;26359;48.750;9.314;2023-12-20T01:47:12;16.05;;;15.25;;
40675;SDS011;26359;48.750;9.314;2023-12-20T01:49:38;20.73;;;19.63;;
40675;SDS011;26359;48.750;9.314;2023-12-20T01:52:04;5.50;;;5.20;;
40675;SDS011;26359;48.750;9.314;2023-12-20T01:54:30;16.52;;;15.68;;
40675;SDS011;26359;48.750;9.314;2023-12-20T01:56:56;21.60;;;20.48;;
40675;SDS011;26359;48.750;9.314;2023-12-20T01:59:22;14.52;;;13.75;;
40675;SDS011;26359;48.750;9.314;2023-12-20T02:01:48;7.05;;;6.75;;
40675;SDS011;26359;48.750;9.314;2023-12-20T02:04:14;6.32;;;6.03;;
40675;SDS011;26359;48.750;9.314;2023-12-20T02:06:40;4.80;;;4.50;;
40675;SDS011;26359;48.750;9.314;2023-12-20T02:09:06;3.90;;;3.70;;
40675;SDS011;26359;48.750;9.314;2023-12-20T02:11:32;3.92;;;3.70;;
40675;SDS011;26359;48.750;9.314;2023-12-20T02:13:58;7.10;;;6.68;;
40675;SDS011;26359;48.750;9.314;2023-12-20T02:16:24;7.65;;;7.28;;
40675;SDS011;26359;48.750;9.314;2023-12-20T02:18:49;5.28;;;5.07;;
40675;SDS011;26359;48.750;9.314;2023-12-20T02:21:15;5.30;;;5.00;;
40675;SDS011;26359;48.750;9.314;2023-12-20T02:23:40;12.98;;;12.30;;
40675;SDS011;26359;48.750;9.314;2023-12-20T02:26:06;4.82;;;4.53;;
40675;SDS011;26359;48.750;9.314;2023-12-20T02:28:32;4.28;;;4.07;;
40675;SDS011;26359;48.750;9.314;2023-12-20T02:30:58;10.85;;;10.30;;
40675;SDS011;26359;48.750;9.314;2023-12-20T02:33:23;12.65;;;12.00;;
40675;SDS011;26359;48.750;9.314;2023-12-20T02:35:49;21.05;;;19.88;;
40675;SDS011;26359;48.750;9.314;2023-12-20T02:38:15;13.63;;;12.93;;
40675;SDS011;26359;48.750;9.314;2023-12-20T02:40:40;28.23;;;26.65;;
40675;SDS011;26359;48.750;9.314;2023-12-20T02:43:06;4.25;;;4.00;;
40675;SDS011;26359;48.750;9.314;2023-12-20T02:45:31;4.72;;;4.38;;
40675;SDS011;26359;48.750;9.314;2023-12-20T02:47:57;9.07;;;8.57;;
40675;SDS011;26359;48.750;9.314;2023-12-20T02:50:22;4.15;;;3.85;;
40675;SDS011;26359;48.750;9.314;2023-12-20T02:52:48;7.95;;;7.50;;
40675;SDS011;26359;48.750;9.314;2023-12-20T02:55:13;23.23;;;21.55;;
40675;SDS011;26359;48.750;9.314;2023-12-20T02:57:39;25.52;;;24.10;;
40675;SDS011;26359;48.750;9.314;2023-12-20T03:00:10;25.35;;;24.05;;
40675;SDS011;26359;48.750;9.314;2023-12-20T03:02:36;22.88;;;21.73;;
40675;SDS011;26359;48.750;9.314;2023-12-20T03:05:02;42.72;;;40.58;;
40675;SDS011;26359;48.750;9.314;2023-12-20T03:07:28;16.27;;;15.32;;
40675;SDS011;26359;48.750;9.314;2023-12-20T03:09:53;5.70;;;5.30;;
40675;SDS011;26359;48.750;9.314;2023-12-20T03:12:19;8.27;;;7.70;;
40675;SDS011;26359;48.750;9.314;2023-12-20T03:14:44;6.97;;;6.57;;
40675;SDS011;26359;48.750;9.314;2023-12-20T03:17:10;14.38;;;13.63;;
40675;SDS011;26359;48.750;9.314;2023-12-20T03:19:35;6.70;;;6.38;;
40675;SDS011;26359;48.750;9.314;2023-12-20T03:22:01;8.50;;;8.00;;
40675;SDS011;26359;48.750;9.314;2023-12-20T03:24:27;29.70;;;28.20;;
40675;SDS011;26359;48.750;9.314;2023-12-20T03:26:52;72.88;;;69.28;;
40675;SDS011;26359;48.750;9.314;2023-12-20T03:29:18;69.70;;;66.22;;
40675;SDS011;26359;48.750;9.314;2023-12-20T03:31:44;73.03;;;69.43;;
40675;SDS011;26359;48.750;9.314;2023-12-20T03:34:09;26.60;;;25.25;;
40675;SDS011;26359;48.750;9.314;2023-12-20T03:36:35;15.63;;;14.75;;
40675;SDS011;26359;48.750;9.314;2023-12-20T03:39:01;5.80;;;5.47;;
40675;SDS011;26359;48.750;9.314;2023-12-20T03:41:26;3.92;;;3.72;;
40675;SDS011;26359;48.750;9.314;2023-12-20T03:43:52;6.00;;;5.65;;
40675;SDS011;26359;48.750;9.314;2023-12-20T03:46:17;6.60;;;6.22;;
40675;SDS011;26359;48.750;9.314;2023-12-20T03:48:43;5.55;;;5.15;;
40675;SDS011;26359;48.750;9.314;2023-12-20T03:51:08;8.50;;;8.00;;
40675;SDS011;26359;48.750;9.314;2023-12-20T03:53:34;4.72;;;4.43;;
40675;SDS011;26359;48.750;9.314;2023-12-20T03:55:59;4.57;;;4.18;;
40675;SDS011;26359;48.750;9.314;2023-12-20T03:58:25;4.55;;;4.25;;
40675;SDS011;26359;48.750;9.314;2023-12-20T04:00:50;5.50;;;5.20;;
40675;SDS011;26359;48.750;9.314;2023-12-20T04:03:16;3.75;;;3.45;;
40675;SDS011;26359;48.750;9.314;2023-12-20T04:05:41;8.20;;;7.80;;
40675;SDS011;26359;48.750;9.314;2023-12-20T04:08:07;6.55;;;6.25;;
40675;SDS011;26359;48.750;9.314;2023-12-20T04:10:33;8.65;;;8.23;;
40675;SDS011;26359;48.750;9.314;2023-12-20T04:12:58;4.07;;;3.78;;
40675;SDS011;26359;48.750;9.314;2023-12-20T04:15:24;16.48;;;15.63;;
40675;SDS011;26359;48.750;9.314;2023-12-20T04:17:49;8.40;;;7.90;;
40675;SDS011;26359;48.750;9.314;2023-12-20T04:20:15;9.05;;;8.55;;
40675;SDS011;26359;48.750;9.314;2023-12-20T04:22:40;11.93;;;11.35;;
40675;SDS011;26359;48.750;9.314;2023-12-20T04:25:07;7.35;;;6.95;;
40675;SDS011;26359;48.750;9.314;2023-12-20T04:27:33;3.22;;;3.03;;
40675;SDS011;26359;48.750;9.314;2023-12-20T04:29:58;4.28;;;4.07;;
40675;SDS011;26359;48.750;9.314;2023-12-20T04:32:24;4.95;;;4.65;;
40675;SDS011;26359;48.750;9.314;2023-12-20T04:34:49;4.65;;;4.45;;
40675;SDS011;26359;48.750;9.314;2023-12-20T04:37:15;3.78;;;3.58;;
40675;SDS011;26359;48.750;9.314;2023-12-20T04:39:40;6.18;;;5.88;;
40675;SDS011;26359;48.750;9.314;2023-12-20T04:42:06;8.85;;;8.45;;
40675;SDS011;26359;48.750;9.314;2023-12-20T04:44:32;12.88;;;12.20;;
40675;SDS011;26359;48.750;9.314;2023-12-20T04:46:57;21.45;;;20.45;;
40675;SDS011;26359;48.750;9.314;2023-12-20T04:49:23;24.88;;;23.67;;
40675;SDS011;26359;48.750;9.314;2023-12-20T04:51:49;5.75;;;5.38;;
40675;SDS011;26359;48.750;9.314;2023-12-20T04:54:14;12.50;;;11.82;;
40675;SDS011;26359;48.750;9.314;2023-12-20T04:56:40;10.68;;;10.18;;
40675;SDS011;26359;48.750;9.314;2023-12-20T04:59:06;8.05;;;7.65;;
40675;SDS011;26359;48.750;9.314;2023-12-20T05:01:31;8.95;;;8.43;;
40675;SDS011;26359;48.750;9.314;2023-12-20T05:03:57;7.35;;;7.00;;
40675;SDS011;26359;48.750;9.314;2023-12-20T05:06:23;8.27;;;7.75;;
40675;SDS011;26359;48.750;9.314;2023-12-20T05:08:49;6.35;;;6.05;;
40675;SDS011;26359;48.750;9.314;2023-12-20T05:11:15;21.27;;;20.20;;
40675;SDS011;26359;48.750;9.314;2023-12-20T05:13:41;39.55;;;37.53;;
40675;SDS011;26359;48.750;9.314;2023-12-20T05:16:06;44.83;;;42.63;;
40675;SDS011;26359;48.750;9.314;2023-12-20T05:18:32;46.88;;;44.63;;
40675;SDS011;26359;48.750;9.314;2023-12-20T05:20:57;70.60;;;67.18;;
40675;SDS011;26359;48.750;9.314;2023-12-20T05:23:23;50.55;;;48.03;;
40675;SDS011;26359;48.750;9.314;2023-12-20T05:25:49;66.68;;;63.40;;
40675;SDS011;26359;48.750;9.314;2023-12-20T05:28:15;53.92;;;51.20;;
40675;SDS011;26359;48.750;9.314;2023-12-20T05:30:40;50.83;;;48.33;;
40675;SDS011;26359;48.750;9.314;2023-12-20T05:33:06;51.58;;;49.05;;
40675;SDS011;26359;48.750;9.314;2023-12-20T05:35:31;57.90;;;55.08;;
40675;SDS011;26359;48.750;9.314;2023-12-20T05:37:57;74.05;;;70.40;;
40675;SDS011;26359;48.750;9.314;2023-12-20T05:40:22;53.72;;;51.10;;
40675;SDS011;26359;48.750;9.314;2023-12-20T05:42:48;57.97;;;55.15;;
40675;SDS011;26359;48.750;9.314;2023-12-20T05:45:14;44.95;;;42.58;;
40675;SDS011;26359;48.750;9.314;2023-12-20T05:47:40;41.92;;;39.80;;
40675;SDS011;26359;48.750;9.314;2023-12-20T05:50:05;68.88;;;65.50;;
40675;SDS011;26359;48.750;9.314;2023-12-20T05:52:31;58.50;;;55.65;;
40675;SDS011;26359;48.750;9.314;2023-12-20T05:54:57;57.22;;;54.42;;
40675;SDS011;26359;48.750;9.314;2023-12-20T05:57:26;20.05;;;19.10;;
40675;SDS011;26359;48.750;9.314;2023-12-20T05:59:51;34.03;;;32.28;;
40675;SDS011;26359;48.750;9.314;2023-12-20T06:02:17;35.20;;;33.20;;
40675;SDS011;26359;48.750;9.314;2023-12-20T06:04:43;44.67;;;42.35;;
40675;SDS011;26359;48.750;9.314;2023-12-20T06:07:11;15.48;;;14.68;;
40675;SDS011;26359;48.750;9.314;2023-12-20T06:09:37;9.60;;;9.05;;
40675;SDS011;26359;48.750;9.314;2023-12-20T06:12:02;8.15;;;7.70;;
40675;SDS011;26359;48.750;9.314;2023-12-20T06:14:28;9.38;;;8.88;;
40675;SDS011;26359;48.750;9.314;2023-12-20T06:16:55;7.78;;;7.32;;
40675;SDS011;26359;48.750;9.314;2023-12-20T06:19:21;11.93;;;11.32;;
40675;SDS011;26359;48.750;9.314;2023-12-20T06:21:47;10.27;;;9.75;;
40675;SDS011;26359;48.750;9.314;2023-12-20T06:24:12;7.68;;;7.28;;
40675;SDS011;26359;48.750;9.314;2023-12-20T06:26:38;5.22;;;4.93;;
40675;SDS011;26359;48.750;9.314;2023-12-20T06:29:03;5.28;;;4.97;;
40675;SDS011;26359;48.750;9.314;2023-12-20T06:31:29;11.07;;;9.32;;
40675;SDS011;26359;48.750;9.314;2023-12-20T06:33:54;8.15;;;7.45;;
40675;SDS011;26359;48.750;9.314;2023-12-20T06:36:22;4.60;;;4.20;;
40675;SDS011;26359;48.750;9.314;2023-12-20T06:38:49;4.78;;;4.43;;
40675;SDS011;26359;48.750;9.314;2023-12-20T06:41:15;4.15;;;3.92;;
40675;SDS011;26359;48.750;9.314;2023-12-20T06:43:41;4.25;;;3.92;;
40675;SDS011;26359;48.750;9.314;2023-12-20T06:46:07;6.15;;;5.75;;
40675;SDS011;26359;48.750;9.314;2023-12-20T06:48:33;6.30;;;5.90;;
40675;SDS011;26359;48.750;9.314;2023-12-20T06:50:59;5.68;;;5.20;;
40675;SDS011;26359;48.750;9.314;2023-12-20T06:53:27;5.63;;;5.10;;
40675;SDS011;26359;48.750;9.314;2023-12-20T06:55:52;9.77;;;9.10;;
40675;SDS011;26359;48.750;9.314;2023-12-20T06:58:18;12.00;;;11.40;;
40675;SDS011;26359;48.750;9.314;2023-12-20T07:00:43;3.75;;;3.55;;
40675;SDS011;26359;48.750;9.314;2023-12-20T07:03:09;10.63;;;9.93;;
40675;SDS011;26359;48.750;9.314;2023-12-20T07:05:34;7.03;;;6.45;;
40675;SDS011;26359;48.750;9.314;2023-12-20T07:08:00;5.32;;;4.97;;
40675;SDS011;26359;48.750;9.314;2023-12-20T07:10:25;3.88;;;3.67;;
40675;SDS011;26359;48.750;9.314;2023-12-20T07:12:51;10.77;;;10.10;;
40675;SDS011;26359;48.750;9.314;2023-12-20T07:15:17;8.40;;;7.90;;
40675;SDS011;26359;48.750;9.314;2023-12-20T07:17:43;9.90;;;9.27;;
40675;SDS011;26359;48.750;9.314;2023-12-20T07:20:09;9.95;;;9.30;;
40675;SDS011;26359;48.750;9.314;2023-12-20T07:22:36;9.35;;;8.65;;
40675;SDS011;26359;48.750;9.314;2023-12-20T07:25:01;8.35;;;7.85;;
40675;SDS011;26359;48.750;9.314;2023-12-20T07:27:28;7.70;;;7.28;;
40675;SDS011;26359;48.750;9.314;2023-12-20T07:29:54;8.00;;;7.50;;
40675;SDS011;26359;48.750;9.314;2023-12-20T07:32:19;11.20;;;10.40;;
40675;SDS011;26359;48.750;9.314;2023-12-20T07:34:45;7.18;;;6.78;;
40675;SDS011;26359;48.750;9.314;2023-12-20T07:37:10;7.13;;;6.72;;
40675;SDS011;26359;48.750;9.314;2023-12-20T07:39:37;7.68;;;7.18;;
40675;SDS011;26359;48.750;9.314;2023-12-20T07:42:05;6.55;;;5.95;;
40675;SDS011;26359;48.750;9.314;2023-12-20T07:44:30;9.88;;;9.10;;
40675;SDS011;26359;48.750;9.314;2023-12-20T07:46:56;7.38;;;6.78;;
40675;SDS011;26359;48.750;9.314;2023-12-20T07:49:22;38.85;;;36.80;;
40675;SDS011;26359;48.750;9.314;2023-12-20T07:51:48;57.97;;;54.97;;
40675;SDS011;26359;48.750;9.314;2023-12-20T07:54:14;8.98;;;8.38;;
40675;SDS011;26359;48.750;9.314;2023-12-20T07:56:40;5.60;;;5.00;;
40675;SDS011;26359;48.750;9.314;2023-12-20T07:59:06;17.75;;;16.85;;
40675;SDS011;26359;48.750;9.314;2023-12-20T08:01:32;16.55;;;15.60;;
40675;SDS011;26359;48.750;9.314;2023-12-20T08:03:57;5.68;;;5.18;;
40675;SDS011;26359;48.750;9.314;2023-12-20T08:06:23;6.88;;;6.35;;
40675;SDS011;26359;48.750;9.314;2023-12-20T08:08:48;11.35;;;10.48;;
40675;SDS011;26359;48.750;9.314;2023-12-20T08:11:14;6.55;;;4.95;;
40675;SDS011;26359;48.750;9.314;2023-12-20T08:13:40;5.05;;;4.60;;
40675;SDS011;26359;48.750;9.314;2023-12-20T08:16:05;13.18;;;12.45;;
40675;SDS011;26359;48.750;9.314;2023-12-20T08:18:31;21.73;;;20.38;;
40675;SDS011;26359;48.750;9.314;2023-12-20T08:20:56;6.13;;;5.63;;
40675;SDS011;26359;48.750;9.314;2023-12-20T08:23:22;8.95;;;8.35;;
40675;SDS011;26359;48.750;9.314;2023-12-20T08:25:47;14.95;;;13.85;;
40675;SDS011;26359;48.750;9.314;2023-12-20T08:28:14;20.00;;;18.88;;
40675;SDS011;26359;48.750;9.314;2023-12-20T08:30:39;15.23;;;14.20;;
40675;SDS011;26359;48.750;9.314;2023-12-20T08:33:05;6.50;;;6.10;;
40675;SDS011;26359;48.750;9.314;2023-12-20T08:35:36;9.57;;;8.98;;
40675;SDS011;26359;48.750;9.314;2023-12-20T08:38:01;14.70;;;13.70;;
40675;SDS011;26359;48.750;9.314;2023-12-20T08:40:29;19.77;;;18.65;;
40675;SDS011;26359;48.750;9.314;2023-12-20T08:42:54;18.83;;;17.55;;
40675;SDS011;26359;48.750;9.314;2023-12-20T08:45:23;12.65;;;11.90;;
40675;SDS011;26359;48.750;9.314;2023-12-20T08:47:49;16.17;;;15.23;;
40675;SDS011;26359;48.750;9.314;2023-12-20T08:50:15;21.00;;;19.45;;
40675;SDS011;26359;48.750;9.314;2023-12-20T08:52:41;7.15;;;6.43;;
40675;SDS011;26359;48.750;9.314;2023-12-20T08:55:07;7.38;;;6.72;;
40675;SDS011;26359;48.750;9.314;2023-12-20T08:57:33;7.75;;;7.15;;
40675;SDS011;26359;48.750;9.314;2023-12-20T08:59:58;8.88;;;7.65;;
40675;SDS011;26359;48.750;9.314;2023-12-20T09:02:24;9.23;;;8.30;;
40675;SDS011;26359;48.750;9.314;2023-12-20T09:04:50;14.05;;;12.85;;
40675;SDS011;26359;48.750;9.314;2023-12-20T09:07:22;9.77;;;9.02;;
40675;SDS011;26359;48.750;9.314;2023-12-20T09:09:48;8.80;;;8.10;;
40675;SDS011;26359;48.750;9.314;2023-12-20T09:12:14;10.82;;;10.13;;
40675;SDS011;26359;48.750;9.314;2023-12-20T09:14:40;6.53;;;6.13;;
40675;SDS011;26359;48.750;9.314;2023-12-20T09:17:05;5.93;;;5.43;;
40675;SDS011;26359;48.750;9.314;2023-12-20T09:19:33;7.03;;;6.43;;
40675;SDS011;26359;48.750;9.314;2023-12-20T09:21:59;7.57;;;7.03;;
40675;SDS011;26359;48.750;9.314;2023-12-20T09:24:24;6.40;;;5.80;;
40675;SDS011;26359;48.750;9.314;2023-12-20T09:26:50;6.30;;;5.80;;
40675;SDS011;26359;48.750;9.314;2023-12-20T09:29:15;6.30;;;5.85;;
40675;SDS011;26359;48.750;9.314;2023-12-20T09:31:42;5.95;;;5.45;;
40675;SDS011;26359;48.750;9.314;2023-12-20T09:34:08;6.68;;;5.97;;
40675;SDS011;26359;48.750;9.314;2023-12-20T09:36:34;16.75;;;15.65;;
40675;SDS011;26359;48.750;9.314;2023-12-20T09:39:01;13.73;;;12.85;;
40675;SDS011;26359;48.750;9.314;2023-12-20T09:41:27;9.38;;;8.68;;
40675;SDS011;26359;48.750;9.314;2023-12-20T09:43:55;13.07;;;12.07;;
40675;SDS011;26359;48.750;9.314;2023-12-20T09:46:25;11.70;;;10.98;;
40675;SDS011;26359;48.750;9.314;2023-12-20T09:48:54;13.77;;;12.88;;
40675;SDS011;26359;48.750;9.314;2023-12-20T09:51:20;15.38;;;14.35;;
40675;SDS011;26359;48.750;9.314;2023-12-20T09:53:46;8.25;;;7.45;;
40675;SDS011;26359;48.750;9.314;2023-12-20T09:56:13;9.70;;;8.95;;
40675;SDS011;26359;48.750;9.314;2023-12-20T09:58:39;12.25;;;11.25;;
40675;SDS011;26359;48.750;9.314;2023-12-20T10:01:06;11.27;;;10.10;;
40675;SDS011;26359;48.750;9.314;2023-12-20T10:03:32;7.50;;;6.85;;
40675;SDS011;26359;48.750;9.314;2023-12-20T10:05:59;9.63;;;9.00;;
40675;SDS011;26359;48.750;9.314;2023-12-20T10:08:25;6.43;;;5.93;;
40675;SDS011;26359;48.750;9.314;2023-12-20T10:10:51;6.85;;;5.57;;
40675;SDS011;26359;48.750;9.314;2023-12-20T10:13:17;8.80;;;6.30;;
40675;SDS011;26359;48.750;9.314;2023-12-20T10:15:43;15.15;;;14.07;;
40675;SDS011;26359;48.750;9.314;2023-12-20T10:18:12;9.70;;;8.82;;
40675;SDS011;26359;48.750;9.314;2023-12-20T10:20:38;15.73;;;14.32;;
40675;SDS011;26359;48.750;9.314;2023-12-20T10:23:05;15.10;;;13.82;;
40675;SDS011;26359;48.750;9.314;2023-12-20T10:25:31;12.45;;;10.93;;
40675;SDS011;26359;48.750;9.314;2023-12-20T10:30:35;10.15;;;9.52;;
40675;SDS011;26359;48.750;9.314;2023-12-20T10:33:01;9.65;;;8.50;;
40675;SDS011;26359;48.750;9.314;2023-12-20T10:35:27;7.57;;;6.85;;
40675;SDS011;26359;48.750;9.314;2023-12-20T10:37:54;14.20;;;12.77;;
40675;SDS011;26359;48.750;9.314;2023-12-20T10:40:22;6.07;;;4.82;;
40675;SDS011;26359;48.750;9.314;2023-12-20T10:42:48;23.83;;;21.77;;
40675;SDS011;26359;48.750;9.314;2023-12-20T10:45:16;8.60;;;7.72;;
40675;SDS011;26359;48.750;9.314;2023-12-20T10:47:42;14.32;;;13.23;;
40675;SDS011;26359;48.750;9.314;2023-12-20T10:50:11;15.23;;;14.07;;
40675;SDS011;26359;48.750;9.314;2023-12-20T10:52:40;9.00;;;7.63;;
40675;SDS011;26359;48.750;9.314;2023-12-20T10:55:07;9.57;;;8.75;;
40675;SDS011;26359;48.750;9.314;2023-12-20T10:57:34;18.45;;;17.15;;
40675;SDS011;26359;48.750;9.314;2023-12-20T11:00:01;11.63;;;9.75;;
40675;SDS011;26359;48.750;9.314;2023-12-20T11:02:34;25.02;;;23.13;;
40675;SDS011;26359;48.750;9.314;2023-12-20T11:08:03;6.60;;;4.07;;
40675;SDS011;26359;48.750;9.314;2023-12-20T11:14:04;9.48;;;7.05;;
40675;SDS011;26359;48.750;9.314;2023-12-20T11:16:37;10.18;;;6.10;;
40675;SDS011;26359;48.750;9.314;2023-12-20T11:19:06;7.32;;;6.50;;
40675;SDS011;26359;48.750;9.314;2023-12-20T11:21:34;5.78;;;5.30;;
40675;SDS011;26359;48.750;9.314;2023-12-20T11:24:03;8.85;;;8.18;;
40675;SDS011;26359;48.750;9.314;2023-12-20T11:26:33;8.32;;;7.57;;
40675;SDS011;26359;48.750;9.314;2023-12-20T11:29:42;10.13;;;7.97;;
40675;SDS011;26359;48.750;9.314;2023-12-20T11:32:00;9.23;;;8.27;;
40675;SDS011;26359;48.750;9.314;2023-12-20T11:34:27;8.55;;;6.78;;
40675;SDS011;26359;48.750;9.314;2023-12-20T11:37:00;8.60;;;7.72;;
40675;SDS011;26359;48.750;9.314;2023-12-20T11:39:28;7.35;;;6.18;;
40675;SDS011;26359;48.750;9.314;2023-12-20T11:41:56;6.43;;;5.82;;
40675;SDS011;26359;48.750;9.314;2023-12-20T11:44:22;7.90;;;7.28;;
40675;SDS011;26359;48.750;9.314;2023-12-20T11:46:50;8.07;;;6.90;;
40675;SDS011;26359;48.750;9.314;2023-12-20T11:49:18;9.15;;;8.07;;
40675;SDS011;26359;48.750;9.314;2023-12-20T11:51:48;11.98;;;11.07;;
40675;SDS011;26359;48.750;9.314;2023-12-20T11:54:17;12.88;;;11.88;;
40675;SDS011;26359;48.750;9.314;2023-12-20T11:56:43;12.07;;;8.52;;
40675;SDS011;26359;48.750;9.314;2023-12-20T11:59:11;9.32;;;8.43;;
40675;SDS011;26359;48.750;9.314;2023-12-20T12:01:37;10.00;;;6.40;;
40675;SDS011;26359;48.750;9.314;2023-12-20T12:04:03;11.15;;;9.25;;
40675;SDS011;26359;48.750;9.314;2023-12-20T12:06:30;15.45;;;14.25;;
40675;SDS011;26359;48.750;9.314;2023-12-20T12:08:55;6.95;;;6.45;;
40675;SDS011;26359;48.750;9.314;2023-12-20T12:11:24;16.40;;;11.38;;
40675;SDS011;26359;48.750;9.314;2023-12-20T12:13:53;8.95;;;8.05;;
40675;SDS011;26359;48.750;9.314;2023-12-20T12:16:22;10.35;;;9.45;;
40675;SDS011;26359;48.750;9.314;2023-12-20T12:18:56;10.95;;;6.38;;
40675;SDS011;26359;48.750;9.314;2023-12-20T12:21:22;10.27;;;7.00;;
40675;SDS011;26359;48.750;9.314;2023-12-20T12:23:51;7.72;;;7.10;;
40675;SDS011;26359;48.750;9.314;2023-12-20T12:26:18;9.32;;;8.52;;
40675;SDS011;26359;48.750;9.314;2023-12-20T12:28:47;9.82;;;8.88;;
40675;SDS011;26359;48.750;9.314;2023-12-20T12:31:15;11.30;;;10.10;;
40675;SDS011;26359;48.750;9.314;2023-12-20T12:33:41;11.40;;;10.48;;
40675;SDS011;26359;48.750;9.314;2023-12-20T12:36:07;7.97;;;5.30;;
40675;SDS011;26359;48.750;9.314;2023-12-20T12:38:36;6.18;;;5.25;;
40675;SDS011;26359;48.750;9.314;2023-12-20T12:41:06;8.35;;;6.20;;
40675;SDS011;26359;48.750;9.314;2023-12-20T12:43:32;9.68;;;6.13;;
40675;SDS011;26359;48.750;9.314;2023-12-20T12:46:01;7.40;;;6.70;;
40675;SDS011;26359;48.750;9.314;2023-12-20T12:48:26;14.75;;;7.40;;
40675;SDS011;26359;48.750;9.314;2023-12-20T12:50:53;9.48;;;7.60;;
40675;SDS011;26359;48.750;9.314;2023-12-20T12:53:19;10.32;;;9.27;;
40675;SDS011;26359;48.750;9.314;2023-12-20T12:55:45;14.85;;;13.40;;
40675;SDS011;26359;48.750;9.314;2023-12-20T12:58:11;16.27;;;14.98;;
40675;SDS011;26359;48.750;9.314;2023-12-20T13:00:36;14.95;;;13.77;;
40675;SDS011;26359;48.750;9.314;2023-12-20T13:03:02;16.42;;;15.35;;
40675;SDS011;26359;48.750;9.314;2023-12-20T13:05:28;9.10;;;8.20;;
40675;SDS011;26359;48.750;9.314;2023-12-20T13:07:55;7.95;;;7.25;;
40675;SDS011;26359;48.750;9.314;2023-12-20T13:10:21;10.32;;;7.75;;
40675;SDS011;26359;48.750;9.314;2023-12-20T13:12:47;12.73;;;11.48;;
40675;SDS011;26359;48.750;9.314;2023-12-20T13:15:12;9.13;;;8.23;;
40675;SDS011;26359;48.750;9.314;2023-12-20T13:17:38;13.63;;;11.07;;
40675;SDS011;26359;48.750;9.314;2023-12-20T13:20:05;12.70;;;10.52;;
40675;SDS011;26359;48.750;9.314;2023-12-20T13:22:31;11.57;;;10.68;;
40675;SDS011;26359;48.750;9.314;2023-12-20T13:24:57;12.27;;;11.05;;
40675;SDS011;26359;48.750;9.314;2023-12-20T13:27:22;13.77;;;12.65;;
40675;SDS011;26359;48.750;9.314;2023-12-20T13:29:48;16.30;;;15.05;;
40675;SDS011;26359;48.750;9.314;2023-12-20T13:32:14;19.20;;;17.90;;
40675;SDS011;26359;48.750;9.314;2023-12-20T13:34:40;20.48;;;19.05;;
40675;SDS011;26359;48.750;9.314;2023-12-20T13:37:05;17.40;;;15.90;;
40675;SDS011;26359;48.750;9.314;2023-12-20T13:39:30;21.92;;;20.30;;
40675;SDS011;26359;48.750;9.314;2023-12-20T13:41:56;13.85;;;12.43;;
40675;SDS011;26359;48.750;9.314;2023-12-20T13:44:22;17.50;;;16.00;;
40675;SDS011;26359;48.750;9.314;2023-12-20T13:46:48;15.32;;;13.88;;
40675;SDS011;26359;48.750;9.314;2023-12-20T13:49:15;13.27;;;12.07;;
40675;SDS011;26359;48.750;9.314;2023-12-20T13:51:40;12.05;;;10.80;;
40675;SDS011;26359;48.750;9.314;2023-12-20T13:54:06;15.93;;;14.82;;
40675;SDS011;26359;48.750;9.314;2023-12-20T13:56:31;16.17;;;14.90;;
40675;SDS011;26359;48.750;9.314;2023-12-20T13:59:00;10.98;;;9.95;;
40675;SDS011;26359;48.750;9.314;2023-12-20T14:01:26;12.07;;;11.13;;
40675;SDS011;26359;48.750;9.314;2023-12-20T14:03:51;10.02;;;8.98;;
40675;SDS011;26359;48.750;9.314;2023-12-20T14:06:17;16.98;;;15.57;;
40675;SDS011;26359;48.750;9.314;2023-12-20T14:08:42;16.13;;;14.73;;
40675;SDS011;26359;48.750;9.314;2023-12-20T14:11:08;16.77;;;15.45;;
40675;SDS011;26359;48.750;9.314;2023-12-20T14:13:34;19.00;;;17.70;;
40675;SDS011;26359;48.750;9.314;2023-12-20T14:16:00;14.70;;;13.45;;
40675;SDS011;26359;48.750;9.314;2023-12-20T14:18:26;22.90;;;21.40;;
40675;SDS011;26359;48.750;9.314;2023-12-20T14:20:52;33.50;;;31.40;;
40675;SDS011;26359;48.750;9.314;2023-12-20T14:23:18;28.20;;;26.17;;
40675;SDS011;26359;48.750;9.314;2023-12-20T14:25:44;18.88;;;17.35;;
40675;SDS011;26359;48.750;9.314;2023-12-20T14:28:10;37.83;;;35.60;;
40675;SDS011;26359;48.750;9.314;2023-12-20T14:30:37;34.78;;;32.65;;
40675;SDS011;26359;48.750;9.314;2023-12-20T14:33:03;8.80;;;5.57;;
40675;SDS011;26359;48.750;9.314;2023-12-20T14:35:29;7.60;;;6.70;;